Time;durP1;ratioP1;P1;durP2;ratioP2;P2;SDS_P1;SDS_P2;PMS_P1;PMS_P2;Temp;Humidity;BMP_temperature;BMP_pressure;BME280_temperature;BME280_humidity;BME280_pressure;Samples;Min_cycle;Max_cycle;Signal;HPM_P1;HPM_P2
2022/10/07 00:04:27;;;;;;;23.02;13.52;;;;;;;6.86;88.97;98853.66;10418301;28;20075;-57
2022/10/07 00:09:26;;;;;;;21.98;13.13;;;;;;;6.74;89.73;98842.13;10418044;28;20045;-57
2022/10/07 00:14:25;;;;;;;17.05;11.52;;;;;;;6.61;89.80;98842.56;10417813;28;20483;-57
2022/10/07 00:19:24;;;;;;;21.45;12.07;;;;;;;6.52;90.04;98838.00;10417358;28;20609;-57
2022/10/07 00:24:23;;;;;;;17.15;10.90;;;;;;;6.49;89.88;98839.56;10417277;28;20033;-57
2022/10/07 00:29:22;;;;;;;15.48;10.75;;;;;;;6.43;89.97;98839.41;10417702;28;20075;-57
2022/10/07 00:34:21;;;;;;;19.80;13.05;;;;;;;6.35;89.84;98840.03;10416293;28;20033;-57
2022/10/07 00:39:20;;;;;;;23.75;14.15;;;;;;;6.24;89.76;98822.44;10416687;28;20115;-57
2022/10/07 00:44:30;;;;;;;24.08;15.38;;;;;;;6.17;90.26;98832.53;10417240;28;20068;-57
2022/10/07 00:49:36;;;;;;;19.48;13.52;;;;;;;6.09;90.22;98840.81;10416247;28;20064;-57
2022/10/07 00:54:36;;;;;;;19.35;12.77;;;;;;;5.97;90.76;98821.53;10415620;28;20088;-57
2022/10/07 00:59:38;;;;;;;17.65;11.65;;;;;;;5.95;91.02;98824.88;10416020;28;20067;-57
2022/10/07 01:04:38;;;;;;;16.23;9.55;;;;;;;5.93;90.39;98822.28;10415560;28;20068;-57
2022/10/07 01:09:37;;;;;;;16.65;10.45;;;;;;;5.88;91.09;98818.69;10417550;28;20460;-57
2022/10/07 01:15:02;;;;;;;13.38;9.40;;;;;;;5.87;90.48;98826.34;10418762;28;20576;-57
2022/10/07 01:20:26;;;;;;;14.82;9.38;;;;;;;5.84;90.96;98821.97;10418929;28;20099;-57
2022/10/07 01:25:43;;;;;;;14.00;8.80;;;;;;;5.83;90.67;98822.78;10418154;28;20025;-57
2022/10/07 01:30:48;;;;;;;13.68;8.57;;;;;;;5.81;90.48;98820.97;10417894;28;20060;-57
2022/10/07 01:35:50;;;;;;;16.88;10.43;;;;;;;5.71;91.40;98827.50;10418097;28;20059;-57
2022/10/07 01:41:04;;;;;;;18.45;11.10;;;;;;;5.64;91.69;98822.94;10417955;28;20080;-57
2022/10/07 01:46:06;;;;;;;17.67;12.13;;;;;;;5.62;91.97;98816.88;10417550;28;20535;-57
2022/10/07 01:51:07;;;;;;;18.95;12.32;;;;;;;5.54;92.34;98820.03;10417722;28;20495;-57
2022/10/07 01:56:45;;;;;;;19.77;11.10;;;;;;;5.52;92.56;98816.53;10417187;28;20079;-57
2022/10/07 02:01:47;;;;;;;17.70;11.98;;;;;;;5.47;92.45;98820.66;10409520;28;20068;-57
2022/10/07 02:06:51;;;;;;;19.27;12.70;;;;;;;5.47;92.56;98824.94;10416096;28;20058;-57
2022/10/07 02:11:59;;;;;;;16.10;11.52;;;;;;;5.51;92.35;98829.38;10413680;28;20063;-57
2022/10/07 02:17:09;;;;;;;19.20;10.30;;;;;;;5.39;92.87;98831.47;10413095;28;20084;-57
2022/10/07 02:22:11;;;;;;;20.40;10.20;;;;;;;5.23;92.90;98814.63;10413538;28;20071;-57
2022/10/07 02:27:15;;;;;;;15.15;9.90;;;;;;;5.32;92.59;98843.25;10413347;28;20071;-57
2022/10/07 02:32:19;;;;;;;14.23;9.27;;;;;;;5.29;92.16;98844.00;10412479;28;20060;-57
2022/10/07 02:37:23;;;;;;;15.60;9.35;;;;;;;5.24;92.38;98839.50;10412392;28;20067;-57
2022/10/07 02:42:38;;;;;;;16.77;9.88;;;;;;;5.22;92.23;98825.72;10413281;28;20072;-57
2022/10/07 02:47:48;;;;;;;19.35;9.45;;;;;;;5.19;92.37;98838.47;10412246;28;20056;-57
2022/10/07 02:52:50;;;;;;;16.40;9.98;;;;;;;5.11;92.42;98840.72;10411909;28;20083;-57
2022/10/07 02:57:53;;;;;;;15.23;9.80;;;;;;;5.08;92.20;98845.78;10412654;28;20477;-57
2022/10/07 03:02:55;;;;;;;19.42;13.45;;;;;;;4.99;92.26;98856.56;10411833;28;20071;-57
2022/10/07 03:07:59;;;;;;;20.13;13.02;;;;;;;4.95;92.53;98857.31;10412209;28;20052;-57
2022/10/07 03:12:58;;;;;;;24.67;14.30;;;;;;;4.93;92.19;98851.19;10412459;28;20059;-57
2022/10/07 03:17:57;;;;;;;17.65;11.35;;;;;;;4.83;92.43;98855.09;10414308;28;20048;-57
2022/10/07 03:22:56;;;;;;;17.15;11.13;;;;;;;4.81;92.72;98855.84;10419668;28;20552;-57
2022/10/07 03:27:56;;;;;;;19.73;10.95;;;;;;;4.80;92.66;98854.94;10419708;28;20103;-59
2022/10/07 03:32:56;;;;;;;19.83;11.02;;;;;;;4.79;92.38;98852.34;10418655;28;20111;-58
2022/10/07 03:37:55;;;;;;;17.88;11.75;;;;;;;4.79;92.40;98852.34;10419308;28;20084;-58
2022/10/07 03:42:54;;;;;;;27.98;14.57;;;;;;;4.77;92.05;98853.97;10420565;28;20028;-58
2022/10/07 03:47:53;;;;;;;26.13;13.32;;;;;;;4.69;92.35;98846.81;10418941;28;20104;-57
2022/10/07 03:52:52;;;;;;;18.42;12.32;;;;;;;4.73;92.43;98852.94;10416951;28;20129;-58
2022/10/07 03:57:52;;;;;;;19.95;12.45;;;;;;;4.74;92.34;98859.00;10418638;28;20075;-57
2022/10/07 04:02:51;;;;;;;23.27;14.80;;;;;;;4.67;92.66;98857.88;10418216;28;20091;-58
2022/10/07 04:07:51;;;;;;;;;;;;;;;4.58;93.13;98858.38;10418477;28;20490;-58
2022/10/07 04:12:51;;;;;;;26.00;15.00;;;;;;;4.60;93.02;98861.88;10417680;28;19962;-58
2022/10/07 04:17:56;;;;;;;26.02;17.15;;;;;;;4.58;92.84;98862.63;10417743;28;20068;-58
2022/10/07 04:22:55;;;;;;;28.95;19.23;;;;;;;4.63;92.92;98872.28;10417743;28;20072;-58
2022/10/07 04:27:56;;;;;;;31.20;19.27;;;;;;;4.62;92.68;98867.06;10417351;28;20032;-57
2022/10/07 04:32:55;;;;;;;41.03;15.88;;;;;;;4.67;92.92;98871.59;10389195;28;20071;-58
2022/10/07 04:37:55;;;;;;;;;;;;;;;4.69;92.95;98872.53;10416222;28;20060;-57
2022/10/07 04:48:11;;;;;;;111.18;34.95;;;;;;;4.53;93.09;98848.72;10386183;28;20060;-57
2022/10/07 04:53:13;;;;;;;144.30;33.80;;;;;;;4.69;92.98;98875.09;10390009;28;20065;-57
2022/10/07 04:58:13;;;;;;;71.15;26.20;;;;;;;4.71;93.05;98883.78;10377209;28;20099;-57
2022/10/07 05:03:13;;;;;;;40.55;18.55;;;;;;;4.69;93.12;98885.41;10413818;28;20069;-57
2022/10/07 05:08:14;;;;;;;40.33;18.67;;;;;;;4.78;92.96;98890.00;10374591;28;20060;-57
2022/10/07 05:13:15;;;;;;;35.22;21.17;;;;;;;4.87;93.10;98886.94;10373990;28;20068;-59
2022/10/07 05:18:15;;;;;;;47.13;20.98;;;;;;;5.04;92.84;98891.09;10374432;28;20341;-58
2022/10/07 05:23:14;;;;;;;;;;;;;;;5.18;92.86;98893.31;10374644;28;20068;-57
2022/10/07 05:28:14;;;;;;;54.50;23.77;;;;;;;5.27;92.79;98894.53;10373890;28;19952;-58
2022/10/07 05:33:15;;;;;;;61.22;27.33;;;;;;;5.37;92.97;98892.31;10393326;28;20551;-58
2022/10/07 05:38:14;;;;;;;47.47;29.23;;;;;;;5.51;92.57;98886.88;10393897;28;20060;-58
2022/10/07 05:43:12;;;;;;;39.47;27.58;;;;;;;5.68;92.11;98908.09;10387833;28;20016;-58
2022/10/07 05:48:11;;;;;;;44.08;26.35;;;;;;;5.71;92.19;98899.59;10386774;28;20068;-58
2022/10/07 05:53:11;;;;;;;38.78;24.55;;;;;;;5.88;91.76;98898.53;10374293;28;20100;-58
2022/10/07 05:58:12;;;;;;;;;;;;;;;6.13;91.56;98909.69;10407648;28;20504;-58
2022/10/07 06:03:11;;;;;;;38.40;20.67;;;;;;;6.30;91.31;98900.84;10411785;28;20094;-58
2022/10/07 06:08:10;;;;;;;36.88;22.88;;;;;;;6.53;91.31;98893.00;10413990;28;20104;-57
2022/10/07 06:13:09;;;;;;;42.55;24.83;;;;;;;6.73;90.76;98904.00;10412937;28;20063;-58
2022/10/07 06:18:08;;;;;;;34.60;24.05;;;;;;;6.90;91.34;98889.94;10417758;28;20079;-58
2022/10/07 06:23:07;;;;;;;28.58;20.30;;;;;;;7.06;91.40;98901.63;10409100;28;20067;-58
2022/10/07 06:28:22;;;;;;;34.28;21.40;;;;;;;7.23;90.98;98903.00;10406115;28;20515;-58
2022/10/07 06:33:21;;;;;;;34.63;22.42;;;;;;;7.37;90.56;98912.88;10396730;28;20064;-58
2022/10/07 06:38:20;;;;;;;31.08;20.02;;;;;;;7.51;90.20;98909.03;10388656;28;20039;-58
2022/10/07 06:43:19;;;;;;;28.48;18.52;;;;;;;7.68;90.34;98913.81;10408062;28;20123;-58
2022/10/07 06:48:18;;;;;;;28.95;18.52;;;;;;;7.80;90.78;98914.16;10417853;28;20082;-58
2022/10/07 06:53:17;;;;;;;31.30;19.67;;;;;;;8.04;90.22;98914.88;10382629;28;20112;-58
2022/10/07 06:58:17;;;;;;;27.55;18.20;;;;;;;8.24;89.93;98915.41;10386200;28;20065;-58
2022/10/07 07:03:16;;;;;;;29.02;20.50;;;;;;;8.49;89.27;98919.53;10406527;28;20495;-58
2022/10/07 07:08:16;;;;;;;22.10;15.48;;;;;;;8.66;89.16;98906.13;10414566;28;20060;-58
2022/10/07 07:13:15;;;;;;;18.13;14.73;;;;;;;8.79;89.21;98915.97;10420472;28;20963;-58
2022/10/07 07:18:14;;;;;;;19.17;13.23;;;;;;;8.96;87.91;98907.72;10421185;28;20556;-58
2022/10/07 07:23:13;;;;;;;18.92;12.63;;;;;;;9.18;87.62;98907.38;10398236;28;20124;-58
2022/10/07 07:28:14;;;;;;;14.60;11.82;;;;;;;9.38;87.30;98891.47;10380270;28;20036;-58
2022/10/07 07:33:13;;;;;;;19.98;12.88;;;;;;;9.65;86.52;98894.66;10399213;28;20064;-58
2022/10/07 07:38:12;;;;;;;18.80;13.43;;;;;;;9.84;85.95;98897.59;10420597;28;20039;-58
2022/10/07 07:43:11;;;;;;;15.80;11.18;;;;;;;10.00;83.87;98899.66;10392598;28;20464;-58
2022/10/07 07:48:12;;;;;;;14.63;10.05;;;;;;;10.27;82.06;98899.31;10419877;28;20035;-58
2022/10/07 07:53:11;;;;;;;12.15;10.13;;;;;;;10.48;81.11;98885.84;10418948;28;20071;-58
2022/10/07 07:58:10;;;;;;;14.95;10.35;;;;;;;10.79;80.82;98886.38;10419572;28;20036;-58
2022/10/07 08:03:09;;;;;;;17.05;10.57;;;;;;;11.06;80.25;98882.47;10400044;28;20032;-58
2022/10/07 08:08:09;;;;;;;13.32;10.15;;;;;;;11.43;78.92;98889.09;10417312;28;20043;-58
2022/10/07 08:13:11;;;;;;;11.27;7.05;;;;;;;11.71;76.25;98889.44;10414896;28;20068;-58
2022/10/07 08:18:10;;;;;;;11.13;6.35;;;;;;;11.96;74.83;98873.28;10415476;28;20080;-58
2022/10/07 08:23:09;;;;;;;12.30;6.85;;;;;;;12.36;73.73;98876.34;10416623;28;20465;-58
2022/10/07 08:28:08;;;;;;;10.25;5.57;;;;;;;12.68;73.61;98871.44;10418044;28;20021;-58
2022/10/07 08:33:06;;;;;;;10.18;6.30;;;;;;;13.04;72.34;98862.16;10396632;28;20043;-58
2022/10/07 08:38:05;;;;;;;7.93;5.57;;;;;;;13.35;69.45;98850.19;10407657;28;20115;-58
2022/10/07 08:43:08;;;;;;;6.95;4.68;;;;;;;13.57;66.73;98835.56;10414568;28;20499;-58
2022/10/07 08:48:14;;;;;;;7.55;5.50;;;;;;;13.85;66.04;98840.00;10417343;28;20071;-58
2022/10/07 08:53:22;;;;;;;7.78;4.65;;;;;;;14.03;64.56;98840.06;10417869;28;20060;-58
2022/10/07 08:58:54;;;;;;;7.78;4.55;;;;;;;14.25;63.92;98827.91;10417489;28;20066;-58
2022/10/07 09:04:01;;;;;;;6.82;3.60;;;;;;;14.50;62.31;98825.31;10416213;28;20067;-58
2022/10/07 09:09:14;;;;;;;5.40;3.40;;;;;;;14.75;60.29;98813.16;10408238;28;20086;-58
2022/10/07 09:14:32;;;;;;;4.70;3.30;;;;;;;15.04;59.27;98800.06;10399671;28;20131;-58
2022/10/07 09:19:37;;;;;;;6.10;3.47;;;;;;;15.29;58.90;98776.44;10419991;28;20076;-58
2022/10/07 09:24:36;;;;;;;3.92;3.20;;;;;;;15.46;57.07;98779.88;10419116;28;20067;-58
2022/10/07 09:29:35;;;;;;;;;;;;;;;15.74;56.50;98779.72;10420885;28;20016;-58
2022/10/07 09:34:34;;;;;;;6.77;3.57;;;;;;;15.94;55.30;98774.44;10418450;28;19947;-58
2022/10/07 09:39:33;;;;;;;4.25;2.63;;;;;;;16.16;54.20;98769.91;10418654;28;20099;-58
2022/10/07 09:44:32;;;;;;;;;;;;;;;16.30;53.19;98766.31;10400909;28;20060;-58
2022/10/07 09:49:39;;;;;;;5.10;3.20;;;;;;;16.32;54.04;98762.81;10417943;28;19915;-59
2022/10/07 09:54:39;;;;;;;5.55;3.30;;;;;;;16.31;53.87;98712.19;10412712;28;20504;-58
2022/10/07 09:59:39;;;;;;;4.90;3.30;;;;;;;16.69;52.93;98740.63;10398146;28;20083;-58
2022/10/07 10:04:56;;;;;;;7.13;3.00;;;;;;;16.86;51.95;98711.69;10416329;28;20126;-58
2022/10/07 10:10:15;;;;;;;9.48;4.43;;;;;;;17.02;51.00;98721.97;10411988;28;20614;-58
2022/10/07 10:15:33;;;;;;;;;;;;;;;17.17;49.87;98708.69;10410910;28;20094;-59
2022/10/07 10:20:38;;;;;;;7.30;3.10;;;;;;;17.21;49.23;98710.38;10413281;28;20384;-58
2022/10/07 10:31:28;;;;;;;5.57;2.80;;;;;;;17.00;47.01;98673.91;10412020;28;20060;-58
2022/10/07 10:36:31;;;;;;;6.82;2.83;;;;;;;17.35;46.96;98684.84;10412018;28;20067;-58
2022/10/07 10:41:34;;;;;;;4.72;2.70;;;;;;;17.50;46.73;98680.28;10410721;28;20085;-58
2022/10/07 10:46:32;;;;;;;6.22;2.90;;;;;;;17.56;46.31;98677.53;10414001;28;20056;-58
2022/10/07 10:51:41;;;;;;;5.28;3.10;;;;;;;17.68;45.26;98666.88;10411973;28;20052;-58
2022/10/07 10:56:47;;;;;;;4.50;3.07;;;;;;;17.87;45.55;98653.47;10409226;28;20686;-58
2022/10/07 11:01:55;;;;;;;4.60;2.78;;;;;;;18.02;44.66;98650.63;10413378;28;20510;-58
2022/10/07 11:07:17;;;;;;;6.13;2.70;;;;;;;18.08;43.80;98650.53;10414024;28;20060;-59
2022/10/07 11:12:28;;;;;;;7.65;3.08;;;;;;;18.04;43.72;98637.47;10414654;28;20075;-58
2022/10/07 11:17:30;;;;;;;7.90;3.80;;;;;;;18.14;43.51;98632.03;10413543;28;20078;-59
2022/10/07 11:22:37;;;;;;;3.90;2.33;;;;;;;18.26;43.59;98614.31;10413418;28;20510;-59
2022/10/07 11:27:38;;;;;;;4.75;2.80;;;;;;;18.37;43.10;98613.22;10414002;28;20432;-58
2022/10/07 11:33:03;;;;;;;8.43;2.90;;;;;;;18.41;41.97;98603.53;10413034;28;20522;-58
2022/10/07 11:38:14;;;;;;;4.25;2.75;;;;;;;18.46;42.42;98598.19;10412901;28;20515;-58
2022/10/07 11:43:45;;;;;;;6.68;2.83;;;;;;;18.48;42.13;98584.13;10415690;28;20518;-58
2022/10/07 11:48:52;;;;;;;5.53;3.05;;;;;;;18.74;41.39;98591.50;10414463;28;20060;-58
2022/10/07 11:53:55;;;;;;;4.55;2.30;;;;;;;18.78;39.41;98581.78;10415489;28;20063;-59
2022/10/07 11:58:59;;;;;;;5.05;2.67;;;;;;;19.10;39.27;98582.84;10414337;28;20104;-58
2022/10/07 12:04:20;;;;;;;2.97;2.42;;;;;;;19.20;38.48;98574.69;10414104;28;20063;-58
2022/10/07 12:09:56;;;;;;;5.47;2.65;;;;;;;19.12;38.50;98575.81;10415961;28;20082;-58
2022/10/07 12:15:01;;;;;;;5.80;3.15;;;;;;;19.13;37.94;98580.16;10417117;28;20056;-59
2022/10/07 12:20:36;;;;;;;4.22;2.60;;;;;;;19.12;38.22;98570.53;10417527;28;20087;-59
2022/10/07 12:25:41;;;;;;;4.30;3.13;;;;;;;19.12;38.41;98576.66;10416993;28;20068;-62
2022/10/07 12:30:49;;;;;;;5.30;2.83;;;;;;;19.11;38.40;98571.41;10416894;28;20079;-58
2022/10/07 12:35:49;;;;;;;5.83;3.00;;;;;;;19.30;38.26;98572.75;10395953;28;20091;-59
2022/10/07 12:41:03;;;;;;;6.22;2.80;;;;;;;19.30;38.18;98562.22;10416207;28;20636;-58
2022/10/07 12:46:08;;;;;;;7.97;3.00;;;;;;;19.37;38.08;98549.75;10415212;28;20060;-58
2022/10/07 12:51:23;;;;;;;5.55;2.90;;;;;;;19.34;37.07;98542.81;10415328;28;20060;-58
2022/10/07 12:56:26;;;;;;;7.35;3.20;;;;;;;19.29;37.52;98549.09;10415878;28;20063;-58
2022/10/07 13:01:39;;;;;;;4.20;2.85;;;;;;;19.31;36.43;98536.78;10412625;28;20068;-58
2022/10/07 13:07:14;;;;;;;5.45;3.15;;;;;;;19.37;36.67;98528.72;10412012;28;20067;-58
2022/10/07 13:12:32;;;;;;;6.90;3.17;;;;;;;19.51;36.69;98529.25;10388768;28;20079;-58
2022/10/07 13:18:01;;;;;;;4.28;2.80;;;;;;;19.48;36.10;98525.81;10414381;28;20076;-58
2022/10/07 13:23:17;;;;;;;4.07;2.60;;;;;;;19.44;36.01;98522.41;10401453;28;20738;-58
2022/10/07 13:28:21;;;;;;;7.70;3.30;;;;;;;19.59;36.71;98519.41;10414307;28;20067;-58
2022/10/07 13:33:30;;;;;;;5.85;2.80;;;;;;;19.48;36.42;98523.19;10415324;28;20071;-58
2022/10/07 13:38:29;;;;;;;;;;;;;;;19.33;36.96;98522.66;10414383;28;20064;-58
2022/10/07 13:43:30;;;;;;;3.13;2.50;;;;;;;19.27;37.16;98516.69;10414344;28;19958;-58
2022/10/07 13:48:34;;;;;;;4.80;3.03;;;;;;;18.92;37.07;98511.31;10413777;28;20067;-58
2022/10/07 13:53:35;;;;;;;6.55;2.70;;;;;;;18.96;36.91;98523.53;10412211;28;20086;-58
2022/10/07 13:58:35;;;;;;;4.32;2.72;;;;;;;18.86;37.15;98521.16;10413051;28;20504;-58
2022/10/07 14:04:00;;;;;;;5.32;3.03;;;;;;;18.88;36.99;98508.81;10412538;28;20055;-59
2022/10/07 14:09:00;;;;;;;5.47;2.83;;;;;;;18.88;36.86;98506.16;10414737;28;20072;-58
2022/10/07 14:13:59;;;;;;;4.60;3.25;;;;;;;18.72;37.38;98513.56;10416245;28;20068;-58
2022/10/07 14:18:58;;;;;;;6.82;4.22;;;;;;;18.77;37.88;98516.94;10416712;28;20079;-58
2022/10/07 14:24:08;;;;;;;3.97;2.88;;;;;;;18.74;38.50;98511.75;10416677;28;20072;-58
2022/10/07 14:29:26;;;;;;;5.93;2.50;;;;;;;18.68;38.77;98509.22;10416369;28;20056;-58
2022/10/07 14:39:46;;;;;;;3.45;2.50;;;;;;;18.55;39.87;98512.13;10415965;28;20060;-58
2022/10/07 14:44:46;;;;;;;5.45;3.42;;;;;;;18.48;40.39;98507.00;10415677;28;20071;-58
2022/10/07 14:49:52;;;;;;;6.65;3.20;;;;;;;18.39;41.03;98501.06;10415255;28;20052;-58
2022/10/07 14:54:51;;;;;;;4.82;2.80;;;;;;;18.08;41.69;98486.78;10415595;28;20063;-58
2022/10/07 14:59:51;;;;;;;7.88;2.97;;;;;;;18.08;41.91;98502.56;10414744;28;20464;-58
2022/10/07 15:04:50;;;;;;;8.13;3.58;;;;;;;17.91;42.43;98508.13;10393384;28;20515;-58
2022/10/07 15:09:48;;;;;;;10.07;4.97;;;;;;;17.72;43.23;98500.56;10372266;28;20021;-58
2022/10/07 15:14:47;;;;;;;;;;;;;;;17.60;43.41;98499.91;10375196;28;20051;-58
2022/10/07 15:19:46;;;;;;;7.63;4.50;;;;;;;17.43;44.06;98492.34;10377818;28;20011;-58
2022/10/07 15:24:46;;;;;;;;;;;;;;;17.39;44.24;98498.53;10388242;28;20118;-58
2022/10/07 15:29:45;;;;;;;16.23;9.02;;;;;;;17.25;45.10;98489.09;10419455;28;19978;-58
2022/10/07 15:34:44;;;;;;;11.88;7.55;;;;;;;17.08;45.64;98496.38;10418439;28;20043;-58
2022/10/07 15:39:43;;;;;;;14.48;8.35;;;;;;;16.99;46.11;98499.16;10417707;28;20080;-58
2022/10/07 15:44:43;;;;;;;;;;;;;;;16.88;46.83;98508.00;10377702;28;20029;-58
2022/10/07 15:49:42;;;;;;;14.93;9.50;;;;;;;16.64;47.73;98508.34;10410877;28;19946;-58
2022/10/07 15:54:41;;;;;;;16.63;9.68;;;;;;;16.50;47.78;98501.50;10418264;28;20064;-58
2022/10/07 15:59:41;;;;;;;;;;;;;;;16.40;48.16;98513.00;10416826;28;20474;-58
2022/10/07 16:04:41;;;;;;;22.77;9.75;;;;;;;16.26;48.30;98507.94;10417430;28;19959;-58
2022/10/07 16:09:40;;;;;;;19.30;9.77;;;;;;;16.16;49.20;98506.31;10418297;28;20056;-58
2022/10/07 16:14:39;;;;;;;;;;;;;;;16.00;50.03;98516.09;10417599;28;20068;-58
2022/10/07 16:19:38;;;;;;;25.53;14.27;;;;;;;15.79;50.81;98517.16;10416795;28;19916;-58
2022/10/07 16:24:38;;;;;;;;;;;;;;;15.57;51.74;98526.06;10416355;28;20072;-58
2022/10/07 16:34:54;;;;;;;32.08;20.00;;;;;;;15.04;53.67;98547.38;10417052;28;20076;-58
2022/10/07 16:39:55;;;;;;;;;;;;;;;14.78;54.45;98554.47;10416470;28;20021;-58
2022/10/07 16:44:54;;;;;;;69.20;53.22;;;;;;;14.52;55.44;98557.19;10415572;28;20297;-58
2022/10/07 16:49:53;;;;;;;41.28;32.42;;;;;;;14.37;55.84;98564.19;10417244;28;20064;-57
2022/10/07 16:54:52;;;;;;;34.35;25.45;;;;;;;14.18;57.00;98567.75;10415725;28;20108;-58
2022/10/07 16:59:54;;;;;;;29.65;20.73;;;;;;;14.04;57.54;98574.75;10415392;28;20315;-59
2022/10/07 17:04:53;;;;;;;16.88;12.07;;;;;;;13.84;58.22;98573.00;10415759;28;20075;-58
2022/10/07 17:09:52;;;;;;;32.25;22.00;;;;;;;13.70;59.19;98574.75;10417437;28;20099;-58
2022/10/07 17:14:51;;;;;;;17.67;11.85;;;;;;;13.52;60.26;98580.81;10418130;28;20571;-58
2022/10/07 17:19:50;;;;;;;14.93;11.23;;;;;;;13.40;60.54;98583.41;10418279;28;20395;-58
2022/10/07 17:24:49;;;;;;;;;;;;;;;13.27;61.50;98587.75;10413369;28;20072;-58
2022/10/07 17:29:48;;;;;;;16.67;10.18;;;;;;;13.12;62.09;98589.47;10416947;28;19954;-58
2022/10/07 17:34:46;;;;;;;21.40;12.07;;;;;;;12.97;63.10;98592.00;10417830;28;20038;-58
2022/10/07 17:39:46;;;;;;;26.40;16.15;;;;;;;12.83;63.61;98591.09;10417270;28;20028;-58
2022/10/07 17:44:45;;;;;;;35.50;21.42;;;;;;;12.75;64.32;98590.22;10416714;28;20075;-58
2022/10/07 17:49:45;;;;;;;40.30;22.85;;;;;;;12.62;65.04;98590.16;10416888;28;20024;-58
2022/10/07 17:54:43;;;;;;;40.67;25.83;;;;;;;12.51;65.82;98591.88;10417293;28;20028;-58
2022/10/07 17:59:42;;;;;;;41.67;25.48;;;;;;;12.39;66.56;98595.28;10416189;28;20041;-58
2022/10/07 18:04:42;;;;;;;24.70;18.13;;;;;;;12.24;67.38;98588.19;10416340;28;20050;-58
2022/10/07 18:09:41;;;;;;;28.90;18.70;;;;;;;12.09;68.15;98590.72;10414892;28;20059;-58
2022/10/07 18:19:59;;;;;;;19.77;15.35;;;;;;;11.91;69.34;98594.06;10412052;28;20543;-58
2022/10/07 18:24:57;;;;;;;24.23;14.82;;;;;;;11.82;69.84;98597.47;10413188;28;20522;-58
2022/10/07 18:29:56;;;;;;;23.13;16.73;;;;;;;11.70;70.21;98602.56;10411554;28;20487;-58
2022/10/07 18:34:55;;;;;;;24.00;17.25;;;;;;;11.55;70.72;98605.03;10413003;28;20028;-57
2022/10/07 18:39:54;;;;;;;28.60;18.77;;;;;;;11.43;71.75;98611.00;10412610;28;20028;-58
2022/10/07 18:44:53;;;;;;;35.25;23.80;;;;;;;11.31;72.00;98601.34;10411907;28;20041;-58
2022/10/07 18:49:55;;;;;;;33.55;22.42;;;;;;;11.23;72.22;98592.63;10416171;28;20099;-57
2022/10/07 18:54:54;;;;;;;35.50;22.15;;;;;;;11.15;72.63;98594.25;10420458;28;20072;-58
2022/10/07 18:59:53;;;;;;;39.80;21.98;;;;;;;11.09;73.41;98597.69;10419799;28;20047;-58
2022/10/07 19:04:52;;;;;;;35.15;21.67;;;;;;;11.02;73.62;98599.34;10419688;28;20044;-57
2022/10/07 19:09:51;;;;;;;26.13;16.27;;;;;;;10.94;74.52;98605.28;10417932;28;20037;-58
2022/10/07 19:14:50;;;;;;;28.17;18.65;;;;;;;10.82;74.69;98606.88;10419805;28;20024;-58
2022/10/07 19:19:49;;;;;;;28.77;19.65;;;;;;;10.80;74.78;98605.13;10419675;28;20047;-58
2022/10/07 19:30:06;;;;;;;25.60;14.77;;;;;;;10.68;74.77;98597.16;10418659;28;20076;-58
2022/10/07 19:35:05;;;;;;;20.65;14.68;;;;;;;10.67;75.16;98596.31;10419529;28;20505;-57
2022/10/07 19:40:05;;;;;;;19.38;12.95;;;;;;;10.64;75.70;98601.47;10420533;28;20170;-57
2022/10/07 19:45:06;;;;;;;17.88;11.68;;;;;;;10.52;76.12;98586.63;10420399;28;20087;-58
2022/10/07 19:50:05;;;;;;;15.45;11.80;;;;;;;10.56;76.55;98609.13;10419955;28;20055;-57
2022/10/07 19:55:04;;;;;;;36.60;22.40;;;;;;;10.45;77.47;98602.97;10419829;28;20068;-58
2022/10/07 20:00:04;;;;;;;36.58;26.92;;;;;;;10.36;78.31;98595.06;10420161;28;20064;-57
2022/10/07 20:05:05;;;;;;;;;;;;;;;10.27;78.77;98605.31;10420226;28;20060;-58
2022/10/07 20:10:06;;;;;;;33.88;23.23;;;;;;;10.20;78.50;98602.63;10421475;28;19948;-57
2022/10/07 20:15:06;;;;;;;35.88;23.75;;;;;;;10.09;79.34;98599.00;10422923;28;20067;-58
2022/10/07 20:20:06;;;;;;;32.00;22.63;;;;;;;10.03;79.03;98606.69;10422523;28;20083;-57
2022/10/07 20:25:05;;;;;;;31.20;23.55;;;;;;;9.97;79.67;98604.00;10421938;28;20033;-57
2022/10/07 20:30:11;;;;;;;37.08;26.35;;;;;;;9.90;80.07;98605.63;10422149;28;20427;-58
2022/10/07 20:35:11;;;;;;;39.40;28.35;;;;;;;9.82;80.39;98606.38;10422134;28;20025;-58
2022/10/07 20:45:27;;;;;;;36.65;26.80;;;;;;;9.68;81.74;98598.38;10421627;28;20519;-57
2022/10/07 20:50:26;;;;;;;45.60;31.65;;;;;;;9.60;82.48;98600.81;10421451;28;20024;-57
2022/10/07 20:55:25;;;;;;;53.55;39.95;;;;;;;9.52;82.95;98592.06;10421352;28;20158;-57
2022/10/07 21:00:24;;;;;;;53.05;39.72;;;;;;;9.49;83.09;98590.31;10420842;28;20037;-58
2022/10/07 21:05:24;;;;;;;45.25;33.30;;;;;;;9.45;83.30;98585.03;10420930;28;20098;-57
2022/10/07 21:10:23;;;;;;;;;;;;;;;9.32;83.95;98595.22;10418209;28;20059;-58
2022/10/07 21:15:22;;;;;;;43.50;30.95;;;;;;;9.18;84.92;98590.56;10417190;28;19908;-57
2022/10/07 21:20:21;;;;;;;42.75;29.30;;;;;;;9.13;85.07;98590.50;10416642;28;20465;-57
2022/10/07 21:25:20;;;;;;;39.35;27.70;;;;;;;9.10;85.20;98587.84;10416502;28;20064;-58
2022/10/07 21:30:19;;;;;;;34.45;22.80;;;;;;;9.01;85.43;98583.38;10416263;28;20045;-57
2022/10/07 21:35:18;;;;;;;43.72;24.77;;;;;;;8.93;85.08;98591.00;10415852;28;20555;-57
2022/10/07 21:40:17;;;;;;;41.08;27.23;;;;;;;8.87;85.48;98577.94;10415889;28;20547;-57
2022/10/07 21:45:16;;;;;;;37.78;25.10;;;;;;;8.81;85.21;98580.44;10415714;28;20406;-57
2022/10/07 21:50:15;;;;;;;33.70;24.33;;;;;;;8.76;85.81;98566.50;10415723;28;20371;-58
2022/10/07 21:55:14;;;;;;;34.47;22.00;;;;;;;8.72;85.98;98575.94;10415357;28;20078;-57
2022/10/07 22:00:14;;;;;;;36.30;23.25;;;;;;;8.64;86.38;98572.31;10415089;28;20090;-57
2022/10/07 22:05:14;;;;;;;36.33;24.67;;;;;;;8.57;86.70;98569.56;10415250;28;20533;-57
2022/10/07 22:10:13;;;;;;;33.25;23.38;;;;;;;8.52;87.05;98560.00;10412662;28;20059;-57
2022/10/07 22:15:12;;;;;;;;;;;;;;;8.51;86.79;98554.81;10411746;28;20071;-58
2022/10/07 22:20:11;;;;;;;29.52;19.50;;;;;;;8.46;86.95;98562.47;10411435;28;19952;-57
2022/10/07 22:25:10;;;;;;;27.63;18.60;;;;;;;8.42;87.15;98546.88;10411514;28;20032;-57
2022/10/07 22:30:09;;;;;;;26.65;20.05;;;;;;;8.39;87.64;98554.53;10414254;28;20025;-57
2022/10/07 22:35:28;;;;;;;27.88;19.33;;;;;;;8.35;88.00;98547.59;10414197;28;20067;-58
2022/10/07 22:40:27;;;;;;;31.05;20.58;;;;;;;8.28;87.90;98541.41;10414285;28;20076;-57
2022/10/07 22:45:26;;;;;;;29.23;20.50;;;;;;;8.20;88.67;98542.94;10414041;28;20487;-57
2022/10/07 22:50:25;;;;;;;30.08;18.98;;;;;;;8.06;88.76;98530.63;10413910;28;20570;-57
2022/10/07 22:55:24;;;;;;;24.45;17.77;;;;;;;7.98;89.07;98532.16;10413698;28;20485;-57
2022/10/07 23:00:24;;;;;;;;;;;;;;;7.94;89.27;98540.69;10414370;28;20075;-57
2022/10/07 23:05:22;;;;;;;24.33;15.68;;;;;;;7.90;89.04;98522.47;10414064;28;20358;-57
2022/10/07 23:10:22;;;;;;;25.20;17.63;;;;;;;7.86;89.19;98527.59;10415922;28;20491;-57
2022/10/07 23:15:21;;;;;;;;;;;;;;;7.84;89.20;98530.97;10417183;28;20353;-58
2022/10/07 23:20:22;;;;;;;26.63;16.25;;;;;;;7.80;89.55;98531.75;10415720;28;19923;-58
2022/10/07 23:25:25;;;;;;;23.58;15.38;;;;;;;7.76;89.44;98523.06;10417016;28;20028;-57
2022/10/07 23:30:24;;;;;;;30.20;16.42;;;;;;;7.75;89.21;98528.19;10416567;28;20021;-57
2022/10/07 23:35:23;;;;;;;26.90;18.50;;;;;;;7.58;91.36;98525.22;10420476;28;20036;-57
2022/10/07 23:40:22;;;;;;;32.03;18.80;;;;;;;7.56;90.69;98530.34;10424184;28;20024;-57
2022/10/07 23:45:20;;;;;;;26.77;17.25;;;;;;;7.53;90.83;98519.97;10424429;28;20071;-57
2022/10/07 23:50:19;;;;;;;25.63;16.65;;;;;;;7.53;91.38;98516.50;10423870;28;20056;-57
2022/10/07 23:55:18;;;;;;;25.67;18.20;;;;;;;7.52;90.74;98510.47;10423831;28;20031;-58
